Delphi Falls, New York
Current Conditions -  °F | °C
As of 10:54 AM on Monday 26 Jan 2015 (Local Time) from KSYR Reporting Station
Overcast Overcast  
Wind Chill:   Ceiling: 5000
Heat Index: 14°   Visibility: 10mi
Dew Point:   Wind: 9mph
Humidity: 64%   Direction: 80°E
Pressure: 30.02"   Gusts: NA
Location:  42.88°N, 75.91°W
Report Text: KSYR 261554Z 08008KT 10SM OVC050 M10/M16 A3002 RMK AO2 SLP171 T11001156 $
Loading
Personal Weather Stations






























Interactive Weather Map New forecast layout! Learn more

10-Day Weather Forecast

Advertisements
Track Severe Weather on mobile